Time;durP1;ratioP1;P1;durP2;ratioP2;P2;SDS_P1;SDS_P2;PMS_P1;PMS_P2;Temp;Humidity;BMP_temperature;BMP_pressure;BME280_temperature;BME280_humidity;BME280_pressure;Samples;Min_cycle;Max_cycle;Signal;HPM_P1;HPM_P2
2021/12/06 00:00:32;;;;;;;3.35;2.13;;;2.20;99.90;;;;;;5046532;28;20081;-85
2021/12/06 00:03:02;;;;;;;2.53;1.73;;;2.20;99.90;;;;;;5025081;28;20037;-85
2021/12/06 00:05:29;;;;;;;2.85;2.00;;;2.30;99.90;;;;;;5025549;28;20032;-85
2021/12/06 00:07:55;;;;;;;2.33;1.55;;;2.30;99.90;;;;;;5042543;28;20029;-85
2021/12/06 00:10:21;;;;;;;2.95;1.48;;;2.30;99.90;;;;;;5025200;28;20025;-87
2021/12/06 00:12:47;;;;;;;2.10;1.50;;;2.30;99.90;;;;;;5025155;28;20025;-86
2021/12/06 00:15:17;;;;;;;3.25;1.13;;;2.30;99.90;;;;;;5044046;28;20024;-86
2021/12/06 00:17:49;;;;;;;2.20;1.38;;;2.30;99.90;;;;;;5028424;28;20024;-87
2021/12/06 00:20:18;;;;;;;2.67;1.05;;;2.30;99.90;;;;;;5034713;28;20029;-86
2021/12/06 00:22:47;;;;;;;1.88;1.10;;;2.30;99.90;;;;;;5051497;28;20092;-86
2021/12/06 00:25:14;;;;;;;1.45;1.20;;;2.30;99.90;;;;;;5070744;28;20036;-86
2021/12/06 00:27:41;;;;;;;2.35;1.08;;;2.30;99.90;;;;;;5052207;28;20386;-85
2021/12/06 00:30:17;;;;;;;3.03;1.00;;;2.30;99.90;;;;;;5073150;28;20054;-86
2021/12/06 00:32:45;;;;;;;2.42;1.20;;;2.40;99.90;;;;;;5054373;28;20033;-85
2021/12/06 00:35:18;;;;;;;1.33;0.73;;;2.40;99.90;;;;;;5053244;28;20493;-86
2021/12/06 00:38:07;;;;;;;2.05;1.13;;;2.40;99.90;;;;;;5051472;28;20115;-85
2021/12/06 00:40:47;;;;;;;1.00;0.88;;;2.40;99.90;;;;;;5050857;28;20029;-87
2021/12/06 00:43:20;;;;;;;3.05;1.50;;;2.30;99.90;;;;;;5069014;28;20021;-86
2021/12/06 00:45:52;;;;;;;2.92;1.40;;;2.20;99.90;;;;;;5051238;28;20116;-86
2021/12/06 00:48:18;;;;;;;1.65;1.05;;;2.20;99.90;;;;;;5048460;28;20021;-86
2021/12/06 00:50:44;;;;;;;1.42;1.00;;;2.20;99.90;;;;;;5045093;28;20037;-85
2021/12/06 00:53:12;;;;;;;4.15;1.52;;;2.20;99.90;;;;;;5028475;28;20024;-85
2021/12/06 00:55:38;;;;;;;1.27;1.00;;;2.20;99.90;;;;;;5029728;28;20461;-86
2021/12/06 00:58:10;;;;;;;4.45;1.90;;;2.20;99.90;;;;;;5029815;28;20044;-86
2021/12/06 01:00:47;;;;;;;4.32;1.83;;;2.20;99.90;;;;;;5033113;28;20009;-86
2021/12/06 01:03:17;;;;;;;3.38;2.65;;;2.10;99.90;;;;;;5047179;28;20014;-85
2021/12/06 01:05:43;;;;;;;7.53;3.30;;;2.10;99.90;;;;;;5028555;28;20026;-85
2021/12/06 01:08:09;;;;;;;4.88;3.08;;;2.10;99.90;;;;;;5009818;28;20040;-85
2021/12/06 01:10:35;;;;;;;5.57;3.45;;;2.00;99.90;;;;;;5059648;28;20072;-86
2021/12/06 01:13:02;;;;;;;4.68;3.20;;;2.00;99.90;;;;;;5050395;28;20021;-85
2021/12/06 01:15:29;;;;;;;7.03;4.30;;;2.00;99.90;;;;;;5039468;28;20082;-85
2021/12/06 01:17:56;;;;;;;5.90;3.72;;;2.00;99.90;;;;;;5053596;28;20029;-86
2021/12/06 01:20:26;;;;;;;8.13;4.55;;;1.90;99.90;;;;;;5054779;28;20056;-86
2021/12/06 01:22:56;;;;;;;7.90;4.43;;;1.90;99.90;;;;;;5038181;28;20033;-85
2021/12/06 01:39:12;;;;;;;10.65;6.20;;;1.80;99.90;;;;;;5021840;28;20057;-85
2021/12/06 01:41:48;;;;;;;12.93;6.90;;;1.80;99.90;;;;;;5007583;28;20538;-86
2021/12/06 01:44:32;;;;;;;11.52;6.70;;;1.70;99.90;;;;;;5006987;28;20028;-86
2021/12/06 01:47:03;;;;;;;11.00;7.47;;;1.70;99.90;;;;;;5004842;28;20014;-86
2021/12/06 01:49:32;;;;;;;10.27;6.43;;;1.60;99.90;;;;;;5023660;28;20029;-86
2021/12/06 01:52:01;;;;;;;16.33;8.32;;;1.60;99.90;;;;;;5004933;28;20026;-86
2021/12/06 01:54:27;;;;;;;13.43;8.02;;;1.60;99.90;;;;;;5022547;28;20121;-86
2021/12/06 01:56:53;;;;;;;14.77;9.02;;;1.60;99.90;;;;;;5005604;28;20391;-86
2021/12/06 01:59:21;;;;;;;15.73;9.60;;;1.60;99.90;;;;;;5005049;28;20038;-85
2021/12/06 02:01:47;;;;;;;23.05;13.20;;;1.70;99.90;;;;;;5023470;28;20497;-86
2021/12/06 02:04:14;;;;;;;24.52;13.57;;;1.70;99.90;;;;;;5005281;28;20064;-86
2021/12/06 02:06:41;;;;;;;23.52;14.00;;;1.70;99.90;;;;;;5023562;28;20030;-85
2021/12/06 02:09:10;;;;;;;19.60;12.15;;;1.70;99.90;;;;;;5025681;28;20026;-86
2021/12/06 02:11:38;;;;;;;24.15;13.50;;;1.80;99.90;;;;;;5020504;28;20125;-86
2021/12/06 02:14:21;;;;;;;21.42;12.38;;;1.80;99.90;;;;;;5023133;28;20026;-86
2021/12/06 02:19:40;;;;;;;16.75;10.35;;;1.80;99.90;;;;;;5022583;28;20042;-86
2021/12/06 02:22:06;;;;;;;18.48;10.15;;;1.80;99.90;;;;;;5022312;28;20390;-86
2021/12/06 02:24:32;;;;;;;17.75;10.88;;;1.70;99.90;;;;;;5024911;28;20100;-85
2021/12/06 02:26:59;;;;;;;20.20;12.70;;;1.70;99.90;;;;;;5022055;28;20041;-85
2021/12/06 02:29:25;;;;;;;23.35;12.20;;;1.70;99.90;;;;;;5024358;28;20475;-86
2021/12/06 02:31:51;;;;;;;17.77;11.35;;;1.80;99.90;;;;;;5021970;28;20029;-85
2021/12/06 02:34:18;;;;;;;16.45;11.52;;;1.80;99.90;;;;;;5005695;28;20026;-86
2021/12/06 02:36:46;;;;;;;15.93;11.02;;;1.80;99.90;;;;;;5004801;28;20061;-84
2021/12/06 02:39:19;;;;;;;16.27;10.27;;;1.80;99.90;;;;;;5012784;28;20041;-85
2021/12/06 02:41:47;;;;;;;16.83;10.18;;;1.90;99.90;;;;;;5008226;28;20033;-85
2021/12/06 02:44:14;;;;;;;15.68;9.85;;;1.90;99.90;;;;;;5006311;28;20037;-86
2021/12/06 02:46:40;;;;;;;19.30;9.45;;;1.90;99.90;;;;;;5024129;28;20482;-86
2021/12/06 02:49:06;;;;;;;13.75;8.93;;;1.90;99.90;;;;;;5014881;28;20079;-85
2021/12/06 02:51:32;;;;;;;14.82;9.02;;;1.90;99.90;;;;;;5048623;28;20035;-86
2021/12/06 02:53:58;;;;;;;13.50;9.50;;;2.00;99.90;;;;;;5063136;28;20021;-85
2021/12/06 02:59:01;;;;;;;11.00;7.95;;;2.00;99.90;;;;;;5058777;28;20025;-85
2021/12/06 03:01:31;;;;;;;11.13;7.40;;;2.00;99.90;;;;;;5057364;28;20022;-85
2021/12/06 03:03:58;;;;;;;12.00;8.15;;;2.10;99.90;;;;;;5041164;28;20270;-86
2021/12/06 03:06:26;;;;;;;12.52;7.90;;;2.10;99.90;;;;;;5061886;28;20144;-86
2021/12/06 03:09:05;;;;;;;11.98;7.57;;;2.10;99.90;;;;;;5044341;28;20062;-86
2021/12/06 03:11:46;;;;;;;13.48;8.35;;;2.10;99.90;;;;;;5046513;28;20101;-86
2021/12/06 03:14:19;;;;;;;12.20;7.82;;;2.20;99.90;;;;;;5026498;28;20032;-86
2021/12/06 03:16:44;;;;;;;;;;;2.20;99.90;;;;;;5043308;28;20040;-86
2021/12/06 03:19:11;;;;;;;10.50;6.80;;;2.20;99.90;;;;;;5027036;28;19909;-85
2021/12/06 03:21:37;;;;;;;11.43;6.63;;;2.20;99.90;;;;;;5007160;28;20033;-85
2021/12/06 03:24:04;;;;;;;11.70;7.75;;;2.20;99.90;;;;;;5027746;28;20030;-86
2021/12/06 03:26:31;;;;;;;11.13;8.07;;;2.20;99.90;;;;;;5007564;28;20137;-85
2021/12/06 03:28:57;;;;;;;12.55;7.65;;;2.20;99.90;;;;;;5023729;28;20053;-85
2021/12/06 03:31:23;;;;;;;13.55;8.10;;;2.20;99.90;;;;;;5022320;28;20030;-85
2021/12/06 03:33:53;;;;;;;13.43;8.38;;;2.30;99.90;;;;;;5005298;28;20069;-85
2021/12/06 03:36:22;;;;;;;11.88;7.68;;;2.30;99.90;;;;;;5020472;28;20033;-85
2021/12/06 03:38:48;;;;;;;13.82;7.90;;;2.30;99.90;;;;;;5021273;28;20029;-85
2021/12/06 03:41:16;;;;;;;13.70;8.35;;;2.30;99.90;;;;;;5020297;28;20025;-85
2021/12/06 03:43:43;;;;;;;14.23;8.80;;;2.30;99.90;;;;;;5005331;28;20054;-85
2021/12/06 03:46:10;;;;;;;19.38;9.05;;;2.30;99.90;;;;;;5020687;28;20034;-85
2021/12/06 03:48:36;;;;;;;13.27;8.77;;;2.30;99.90;;;;;;5003227;28;20098;-85
2021/12/06 03:51:03;;;;;;;16.15;9.02;;;2.30;99.90;;;;;;5032053;28;20022;-84
2021/12/06 03:53:29;;;;;;;13.95;9.32;;;2.30;99.90;;;;;;5042616;28;20021;-85
2021/12/06 03:55:56;;;;;;;13.02;8.75;;;2.30;99.90;;;;;;5043137;28;20036;-85
2021/12/06 03:58:21;;;;;;;14.43;9.35;;;2.30;99.90;;;;;;5061689;28;20029;-85
2021/12/06 04:00:48;;;;;;;14.73;9.90;;;2.30;99.90;;;;;;5043732;28;20035;-85
2021/12/06 04:03:15;;;;;;;17.92;9.73;;;2.30;99.90;;;;;;5041443;28;20025;-85
2021/12/06 04:05:41;;;;;;;15.75;9.23;;;2.30;99.90;;;;;;5060464;28;20020;-85
2021/12/06 04:08:06;;;;;;;17.02;10.43;;;2.30;99.90;;;;;;5060473;28;20032;-85
2021/12/06 04:10:32;;;;;;;16.15;9.60;;;2.20;99.90;;;;;;5060526;28;20718;-84
2021/12/06 04:12:59;;;;;;;18.10;10.52;;;2.20;99.90;;;;;;5027232;28;20072;-84
2021/12/06 04:15:29;;;;;;;16.70;10.70;;;2.20;99.90;;;;;;5024798;28;20060;-84
2021/12/06 04:17:56;;;;;;;19.45;11.07;;;2.20;99.90;;;;;;5038195;23;20104;-86
2021/12/06 04:20:22;;;;;;;19.10;11.40;;;2.10;99.90;;;;;;5014030;28;20051;-85
2021/12/06 04:22:48;;;;;;;17.63;11.07;;;2.10;99.90;;;;;;5024196;28;20049;-86
2021/12/06 04:25:16;;;;;;;16.05;10.45;;;2.00;99.90;;;;;;5026148;28;20032;-86
2021/12/06 04:27:43;;;;;;;14.27;9.98;;;2.00;99.90;;;;;;5013368;28;20049;-87
2021/12/06 04:30:11;;;;;;;17.13;9.73;;;2.10;99.90;;;;;;5027040;28;20083;-85
2021/12/06 04:32:40;;;;;;;15.35;9.25;;;2.20;99.90;;;;;;5024172;28;20097;-84
2021/12/06 04:35:06;;;;;;;17.65;9.43;;;2.30;99.90;;;;;;5031613;28;20441;-85
2021/12/06 04:37:32;;;;;;;14.63;8.85;;;2.30;99.90;;;;;;5042529;28;20032;-86
2021/12/06 04:39:58;;;;;;;17.83;11.38;;;2.30;99.90;;;;;;5025708;28;20041;-86
2021/12/06 04:42:24;;;;;;;24.75;12.55;;;2.30;99.90;;;;;;5042552;28;20048;-86
2021/12/06 04:44:50;;;;;;;20.38;12.10;;;2.30;99.90;;;;;;5025637;28;20029;-84
2021/12/06 04:47:15;;;;;;;20.17;12.88;;;2.30;99.90;;;;;;5025075;28;20434;-85
2021/12/06 04:49:41;;;;;;;23.27;13.00;;;2.30;99.90;;;;;;5024785;28;20021;-86
2021/12/06 04:52:10;;;;;;;21.35;12.45;;;2.20;99.90;;;;;;5051108;28;20363;-86
2021/12/06 04:54:41;;;;;;;23.75;13.10;;;2.20;99.90;;;;;;5058949;28;20027;-86
2021/12/06 04:57:24;;;;;;;22.02;13.55;;;2.20;99.90;;;;;;5045679;28;20036;-86
2021/12/06 05:00:01;;;;;;;;;;;2.20;99.90;;;;;;5064278;28;20029;-85
2021/12/06 05:02:36;;;;;;;24.50;13.75;;;2.20;99.90;;;;;;5061851;28;19904;-86
2021/12/06 05:05:07;;;;;;;24.88;13.68;;;2.20;99.90;;;;;;5044892;28;20048;-86
2021/12/06 05:07:38;;;;;;;21.52;12.43;;;2.10;99.90;;;;;;5043725;28;20029;-86
2021/12/06 05:10:07;;;;;;;22.42;13.32;;;2.10;99.90;;;;;;5042037;28;20026;-85
2021/12/06 05:12:34;;;;;;;26.27;15.23;;;2.10;99.90;;;;;;5023106;28;20079;-86
2021/12/06 05:15:00;;;;;;;23.25;13.32;;;2.10;99.90;;;;;;5040760;28;20026;-86
2021/12/06 05:17:28;;;;;;;23.08;13.88;;;2.20;99.90;;;;;;5021559;28;20034;-85
2021/12/06 05:19:54;;;;;;;22.20;12.88;;;2.20;99.90;;;;;;5040146;28;20021;-86
2021/12/06 05:22:21;;;;;;;20.88;12.70;;;2.20;99.90;;;;;;5030136;28;20017;-85
2021/12/06 05:24:47;;;;;;;24.52;13.85;;;2.20;99.90;;;;;;5045325;28;20026;-85
2021/12/06 05:27:13;;;;;;;22.25;12.80;;;2.20;99.90;;;;;;5021930;28;20040;-85
2021/12/06 05:29:44;;;;;;;20.80;13.85;;;2.20;99.90;;;;;;5022935;28;20024;-85
2021/12/06 05:32:10;;;;;;;24.05;13.98;;;2.30;99.90;;;;;;5050143;28;20023;-85
2021/12/06 05:34:39;;;;;;;20.25;12.90;;;2.30;99.90;;;;;;5055103;28;20059;-85
2021/12/06 05:37:08;;;;;;;19.15;12.27;;;2.40;99.90;;;;;;5039992;28;20028;-85
2021/12/06 05:39:35;;;;;;;23.13;13.63;;;2.40;99.90;;;;;;5026655;28;20020;-85
2021/12/06 05:42:07;;;;;;;21.45;12.82;;;2.50;99.90;;;;;;5056935;28;20033;-85
2021/12/06 05:44:33;;;;;;;;;;;2.50;99.90;;;;;;5054868;28;20036;-85
2021/12/06 05:47:00;;;;;;;18.17;10.90;;;2.50;99.90;;;;;;5025037;28;19908;-84
2021/12/06 05:49:27;;;;;;;17.85;12.20;;;2.50;99.90;;;;;;5039566;28;20632;-85
2021/12/06 05:51:53;;;;;;;17.20;10.68;;;2.50;99.90;;;;;;5043522;28;20093;-84
2021/12/06 05:54:19;;;;;;;20.88;11.48;;;2.50;99.90;;;;;;5033217;28;20022;-84
2021/12/06 05:56:45;;;;;;;17.83;11.30;;;2.60;99.90;;;;;;5050586;28;20041;-83
2021/12/06 05:59:12;;;;;;;19.25;11.85;;;2.60;99.90;;;;;;5044702;28;20101;-85
2021/12/06 06:01:39;;;;;;;15.65;10.95;;;2.50;99.90;;;;;;5041391;28;20033;-85
2021/12/06 06:04:05;;;;;;;15.15;10.32;;;2.50;99.90;;;;;;5023341;28;20036;-85
2021/12/06 06:06:32;;;;;;;21.88;12.02;;;2.50;99.90;;;;;;5042701;28;20034;-85
2021/12/06 06:08:59;;;;;;;17.75;12.48;;;2.60;99.90;;;;;;5041386;28;20554;-85
2021/12/06 06:11:25;;;;;;;19.42;12.52;;;2.60;99.90;;;;;;5043125;28;20022;-84
2021/12/06 06:13:54;;;;;;;18.85;12.07;;;2.60;99.90;;;;;;5045188;28;20029;-85
2021/12/06 06:16:22;;;;;;;17.52;11.30;;;2.60;99.90;;;;;;5026416;28;20043;-85
2021/12/06 06:18:50;;;;;;;17.52;10.77;;;2.50;99.90;;;;;;5054520;28;20147;-85
2021/12/06 06:21:17;;;;;;;17.00;10.15;;;2.40;99.90;;;;;;5038868;28;20028;-85
2021/12/06 06:23:43;;;;;;;20.50;12.88;;;2.40;99.90;;;;;;5037102;28;20032;-84
2021/12/06 06:26:09;;;;;;;19.80;12.57;;;2.40;99.90;;;;;;5038972;28;20036;-85
2021/12/06 06:28:35;;;;;;;21.23;12.68;;;2.40;99.90;;;;;;5028524;28;20022;-86
2021/12/06 06:31:01;;;;;;;21.55;13.20;;;2.50;99.90;;;;;;5045772;28;20018;-86
2021/12/06 06:33:27;;;;;;;24.40;14.27;;;2.40;99.90;;;;;;5028323;28;20040;-85
2021/12/06 06:35:58;;;;;;;23.77;14.07;;;2.40;99.90;;;;;;5028898;28;20084;-86
2021/12/06 06:38:24;;;;;;;23.63;13.32;;;2.40;99.90;;;;;;5045676;28;20030;-85
2021/12/06 06:40:50;;;;;;;26.30;13.13;;;2.30;99.90;;;;;;5029217;28;20036;-85
2021/12/06 06:43:17;;;;;;;24.50;14.10;;;2.30;99.90;;;;;;5032966;28;20026;-86
2021/12/06 06:45:43;;;;;;;26.00;13.77;;;2.30;99.90;;;;;;5037624;28;20037;-86
2021/12/06 06:48:09;;;;;;;23.65;13.82;;;2.30;99.90;;;;;;5038536;28;20030;-86
2021/12/06 06:50:35;;;;;;;21.60;12.95;;;2.30;99.90;;;;;;5055614;28;20065;-85
2021/12/06 06:53:01;;;;;;;28.95;16.38;;;2.30;99.90;;;;;;5029535;28;20029;-85
2021/12/06 06:55:27;;;;;;;29.88;16.17;;;2.30;99.90;;;;;;5034056;28;20021;-86
2021/12/06 06:57:53;;;;;;;34.00;16.70;;;2.30;99.90;;;;;;5041223;28;20079;-86
2021/12/06 07:00:27;;;;;;;29.80;17.27;;;2.30;99.90;;;;;;5055624;28;20021;-86
2021/12/06 07:02:53;;;;;;;28.25;16.02;;;2.30;99.90;;;;;;5047031;28;20029;-87
2021/12/06 07:05:19;;;;;;;28.20;15.77;;;2.30;99.90;;;;;;5026455;28;20041;-87
2021/12/06 07:07:45;;;;;;;29.23;16.25;;;2.30;99.90;;;;;;5027565;28;20085;-86
2021/12/06 07:10:11;;;;;;;25.95;14.95;;;2.30;99.90;;;;;;5032642;28;20093;-86
2021/12/06 07:12:45;;;;;;;29.15;15.82;;;2.30;99.90;;;;;;5034795;28;20030;-86
2021/12/06 07:15:14;;;;;;;32.25;15.75;;;2.30;99.90;;;;;;5033818;28;20076;-86
2021/12/06 07:17:40;;;;;;;29.70;16.38;;;2.30;99.90;;;;;;5034179;28;20720;-85
2021/12/06 07:20:08;;;;;;;30.92;15.43;;;2.30;99.90;;;;;;5036430;28;20049;-85
2021/12/06 07:22:34;;;;;;;29.52;15.75;;;2.30;99.90;;;;;;5051292;28;20033;-87
2021/12/06 07:24:59;;;;;;;25.75;14.15;;;2.30;99.90;;;;;;5037620;28;20021;-86
2021/12/06 07:27:25;;;;;;;26.45;14.80;;;2.30;99.90;;;;;;5035610;28;20014;-86
2021/12/06 07:29:51;;;;;;;27.83;13.73;;;2.30;99.90;;;;;;5053893;28;20009;-86
2021/12/06 07:32:17;;;;;;;23.77;14.73;;;2.20;99.90;;;;;;5034219;28;20048;-85
2021/12/06 07:34:42;;;;;;;22.25;13.93;;;2.30;99.90;;;;;;5033442;28;20386;-85
2021/12/06 07:37:08;;;;;;;27.25;15.48;;;2.30;99.90;;;;;;5052805;28;20089;-85
2021/12/06 07:39:34;;;;;;;26.05;14.68;;;2.30;99.90;;;;;;5053215;28;20040;-86
2021/12/06 07:42:00;;;;;;;20.70;12.75;;;2.30;99.90;;;;;;5029456;28;20033;-86
2021/12/06 07:44:27;;;;;;;24.50;14.23;;;2.30;99.90;;;;;;5027519;28;20085;-86
2021/12/06 07:46:53;;;;;;;28.70;16.70;;;2.40;99.90;;;;;;5045546;28;20053;-86
2021/12/06 07:49:20;;;;;;;23.92;13.80;;;2.40;99.90;;;;;;5046644;28;20021;-86
2021/12/06 07:51:46;;;;;;;23.80;14.40;;;2.40;99.90;;;;;;5030911;28;20048;-86
2021/12/06 07:54:13;;;;;;;21.75;12.88;;;2.40;99.90;;;;;;5040163;28;20424;-87
2021/12/06 07:56:40;;;;;;;21.20;12.60;;;2.40;99.90;;;;;;5066863;28;20087;-85
2021/12/06 07:59:06;;;;;;;21.23;13.10;;;2.40;99.90;;;;;;5048754;28;20102;-84
2021/12/06 08:01:32;;;;;;;22.90;13.15;;;2.50;99.90;;;;;;5068412;28;20479;-86
2021/12/06 08:03:59;;;;;;;28.60;14.80;;;2.50;99.90;;;;;;5068119;28;20036;-84
2021/12/06 08:06:26;;;;;;;23.98;13.65;;;2.60;99.90;;;;;;5068726;28;20032;-83
2021/12/06 08:08:53;;;;;;;27.35;14.88;;;2.60;99.90;;;;;;5053827;28;20020;-83
2021/12/06 08:11:21;;;;;;;23.02;13.55;;;2.70;99.90;;;;;;5048969;28;20044;-83
2021/12/06 08:13:53;;;;;;;22.60;13.45;;;2.80;99.90;;;;;;5045936;28;20057;-85
2021/12/06 08:16:23;;;;;;;26.85;14.55;;;2.80;99.90;;;;;;5043781;28;20032;-84
2021/12/06 08:18:49;;;;;;;26.38;13.68;;;2.90;99.90;;;;;;5046833;28;20080;-85
2021/12/06 08:21:18;;;;;;;25.33;14.45;;;2.90;99.90;;;;;;5021202;28;20022;-84
2021/12/06 08:23:44;;;;;;;23.98;14.23;;;2.90;99.90;;;;;;5058168;28;20029;-83
2021/12/06 08:26:13;;;;;;;22.33;13.90;;;3.00;99.90;;;;;;5063174;28;20021;-83
2021/12/06 08:28:40;;;;;;;25.00;13.55;;;3.00;99.90;;;;;;5055429;28;20088;-84
2021/12/06 08:31:06;;;;;;;27.05;14.30;;;3.00;99.90;;;;;;5043787;28;20085;-86
2021/12/06 08:33:35;;;;;;;25.02;15.13;;;2.90;99.90;;;;;;5010881;28;20042;-85
2021/12/06 08:36:02;;;;;;;29.17;15.38;;;2.90;99.90;;;;;;5030859;28;20025;-86
2021/12/06 08:38:30;;;;;;;27.02;15.90;;;2.90;99.90;;;;;;5030460;28;20036;-84
2021/12/06 08:40:59;;;;;;;23.50;14.80;;;2.80;99.90;;;;;;5031418;28;20037;-86
2021/12/06 08:43:25;;;;;;;26.17;14.68;;;2.80;99.90;;;;;;5031229;28;20382;-86
2021/12/06 08:45:54;;;;;;;19.63;12.68;;;2.80;99.90;;;;;;5031322;28;20106;-86
2021/12/06 08:48:24;;;;;;;22.45;14.13;;;2.80;99.90;;;;;;5030202;28;20025;-86
2021/12/06 08:50:51;;;;;;;20.40;12.40;;;2.90;99.90;;;;;;5031475;28;20082;-85
2021/12/06 08:53:17;;;;;;;21.10;12.02;;;3.00;99.90;;;;;;5046568;28;20499;-86
2021/12/06 08:55:43;;;;;;;24.48;15.23;;;3.10;99.90;;;;;;5031075;28;20036;-86
2021/12/06 08:58:09;;;;;;;24.17;13.63;;;3.10;99.90;;;;;;5037053;28;20045;-88
2021/12/06 09:00:38;;;;;;;23.58;13.73;;;3.10;99.90;;;;;;5058565;28;20013;-87
2021/12/06 09:03:04;;;;;;;24.67;14.35;;;3.10;99.90;;;;;;5058610;28;20040;-87
2021/12/06 09:05:35;;;;;;;22.30;12.98;;;3.00;99.90;;;;;;5040824;28;20038;-86
2021/12/06 09:08:01;;;;;;;21.05;11.73;;;3.10;99.90;;;;;;5040332;28;20048;-86
2021/12/06 09:10:31;;;;;;;23.70;13.70;;;3.20;99.90;;;;;;5054691;28;20033;-83
2021/12/06 09:12:57;;;;;;;20.33;12.88;;;3.40;99.90;;;;;;5047404;28;20041;-84
2021/12/06 09:15:24;;;;;;;18.50;11.18;;;3.40;99.90;;;;;;5046832;28;20060;-85
2021/12/06 09:17:52;;;;;;;18.33;11.32;;;3.40;99.90;;;;;;5056490;28;20065;-86
2021/12/06 09:20:20;;;;;;;20.35;11.07;;;3.50;99.90;;;;;;5057851;28;20049;-85
2021/12/06 09:22:47;;;;;;;16.55;10.55;;;3.50;99.90;;;;;;5054645;28;20022;-85
2021/12/06 09:25:15;;;;;;;20.83;10.80;;;3.50;99.90;;;;;;5008442;28;20160;-85
2021/12/06 09:27:42;;;;;;;24.20;12.60;;;3.50;99.90;;;;;;5011078;28;20075;-86
2021/12/06 09:30:11;;;;;;;27.60;13.45;;;3.70;99.90;;;;;;5012408;28;20025;-85
2021/12/06 09:32:38;;;;;;;21.98;12.30;;;3.70;99.90;;;;;;5028845;28;20033;-85
2021/12/06 09:35:04;;;;;;;20.90;11.70;;;3.70;99.90;;;;;;5045249;28;20017;-86
2021/12/06 09:37:32;;;;;;;24.85;14.65;;;3.70;99.90;;;;;;5024538;28;20385;-85
2021/12/06 09:39:59;;;;;;;26.20;14.60;;;3.70;99.90;;;;;;5048788;28;20033;-88
2021/12/06 09:42:28;;;;;;;26.35;13.38;;;3.70;99.90;;;;;;5042609;28;20022;-86
2021/12/06 09:44:56;;;;;;;24.33;12.23;;;3.80;99.90;;;;;;5063580;28;20025;-86
2021/12/06 09:47:22;;;;;;;18.13;11.63;;;3.90;99.90;;;;;;5063137;28;20025;-85
2021/12/06 09:49:48;;;;;;;23.27;12.90;;;4.00;99.90;;;;;;5061774;28;20035;-84
2021/12/06 09:52:15;;;;;;;23.30;12.73;;;4.20;99.90;;;;;;5061026;28;20017;-85
2021/12/06 09:54:41;;;;;;;21.20;12.10;;;4.20;99.80;;;;;;5051506;28;20024;-85
2021/12/06 09:57:09;;;;;;;22.90;12.35;;;4.20;99.90;;;;;;5063081;28;20033;-84
2021/12/06 09:59:37;;;;;;;28.23;13.70;;;4.20;99.30;;;;;;5052015;28;20486;-84
2021/12/06 10:02:07;;;;;;;24.95;12.55;;;4.00;99.10;;;;;;5031492;28;20087;-84
2021/12/06 10:04:38;;;;;;;18.20;11.20;;;3.90;99.60;;;;;;5050531;28;20029;-85
2021/12/06 10:07:06;;;;;;;22.10;11.75;;;4.00;99.90;;;;;;5050639;28;20071;-84
2021/12/06 10:09:33;;;;;;;23.15;12.13;;;4.00;99.90;;;;;;5024803;28;20041;-85
2021/12/06 10:12:00;;;;;;;27.58;14.20;;;4.00;99.90;;;;;;5037325;28;20029;-85
2021/12/06 10:14:26;;;;;;;24.98;13.50;;;4.10;99.90;;;;;;5054982;28;20320;-84
2021/12/06 10:16:56;;;;;;;24.83;12.82;;;4.20;99.60;;;;;;5040093;28;20029;-83
2021/12/06 10:19:25;;;;;;;21.15;11.90;;;4.10;99.60;;;;;;5050285;23;20068;-85
2021/12/06 10:21:52;;;;;;;19.58;11.15;;;4.20;99.50;;;;;;5013186;28;20022;-84
2021/12/06 10:24:22;;;;;;;21.50;12.02;;;4.30;99.20;;;;;;5040065;28;20005;-86
2021/12/06 10:26:49;;;;;;;18.02;10.57;;;4.20;99.10;;;;;;5041789;28;20398;-86
2021/12/06 10:29:22;;;;;;;19.73;11.40;;;4.20;99.40;;;;;;5006032;28;20030;-84
2021/12/06 10:31:52;;;;;;;17.88;10.98;;;4.20;98.50;;;;;;5029856;28;20022;-84
2021/12/06 10:34:24;;;;;;;19.38;11.20;;;4.10;98.90;;;;;;5005264;28;20074;-84
2021/12/06 10:36:52;;;;;;;21.33;11.50;;;4.00;98.70;;;;;;5021528;28;20034;-87
2021/12/06 10:39:22;;;;;;;18.55;10.95;;;3.90;99.10;;;;;;5046953;28;20473;-83
2021/12/06 10:41:53;;;;;;;21.20;11.38;;;3.90;99.40;;;;;;5007511;28;20029;-87
2021/12/06 10:44:19;;;;;;;18.55;11.10;;;3.80;99.40;;;;;;5009660;28;20402;-83
2021/12/06 10:46:52;;;;;;;18.17;10.05;;;3.80;99.50;;;;;;5014136;28;20045;-83
2021/12/06 10:49:24;;;;;;;24.48;12.77;;;3.70;99.80;;;;;;5029402;28;20065;-85
2021/12/06 10:51:50;;;;;;;17.97;10.27;;;3.70;99.50;;;;;;5026676;28;20105;-84
2021/12/06 10:54:20;;;;;;;21.08;12.15;;;3.70;99.90;;;;;;5015422;28;20029;-83
2021/12/06 10:56:51;;;;;;;20.45;11.77;;;3.60;99.90;;;;;;5013583;28;20025;-77
2021/12/06 10:59:21;;;;;;;22.90;12.73;;;3.60;99.90;;;;;;5013620;28;20061;-77
2021/12/06 11:01:48;;;;;;;23.73;12.30;;;3.50;99.90;;;;;;4977051;28;20509;-78
2021/12/06 11:04:17;;;;;;;22.65;12.10;;;3.50;99.60;;;;;;5002972;28;20493;-76
2021/12/06 11:06:49;;;;;;;19.27;11.27;;;3.40;99.90;;;;;;4983277;28;20081;-78
2021/12/06 11:09:22;;;;;;;16.80;9.95;;;3.40;99.90;;;;;;4996891;28;20068;-78
2021/12/06 11:11:52;;;;;;;25.48;13.32;;;3.40;99.90;;;;;;4998878;28;20022;-78
2021/12/06 11:14:22;;;;;;;21.58;12.63;;;3.40;99.90;;;;;;5004310;28;20101;-79
2021/12/06 11:16:54;;;;;;;23.30;13.00;;;3.40;99.90;;;;;;5009390;28;20033;-78
2021/12/06 11:19:23;;;;;;;20.30;12.07;;;3.30;99.90;;;;;;4985577;28;20097;-77
2021/12/06 11:21:54;;;;;;;20.27;11.98;;;3.40;99.90;;;;;;5005995;28;20124;-79
2021/12/06 11:24:21;;;;;;;16.80;10.35;;;3.30;99.90;;;;;;5005732;28;20108;-77
2021/12/06 11:26:55;;;;;;;15.00;8.57;;;3.30;99.90;;;;;;5000747;28;20164;-76
2021/12/06 11:29:23;;;;;;;18.70;9.65;;;3.30;99.90;;;;;;4993255;28;20022;-77
2021/12/06 11:32:14;;;;;;;15.38;8.70;;;3.30;99.90;;;;;;5012631;28;20500;-77
2021/12/06 11:34:52;;;;;;;17.95;8.73;;;3.30;99.90;;;;;;5013085;28;20030;-78
2021/12/06 11:37:27;;;;;;;15.38;8.32;;;3.40;99.90;;;;;;5018998;28;20038;-77
2021/12/06 11:40:10;;;;;;;14.43;8.63;;;3.40;99.90;;;;;;4997653;28;20027;-76
2021/12/06 11:43:03;;;;;;;14.05;9.07;;;3.40;99.90;;;;;;5007169;28;20059;-77
2021/12/06 11:45:49;;;;;;;11.65;7.45;;;3.60;99.90;;;;;;5000090;28;20022;-76
2021/12/06 11:48:21;;;;;;;12.70;7.75;;;3.60;99.80;;;;;;4998404;28;20038;-76
2021/12/06 11:50:48;;;;;;;13.02;7.65;;;3.50;99.90;;;;;;5005977;28;20469;-79
2021/12/06 11:53:18;;;;;;;14.10;9.15;;;3.50;99.90;;;;;;5017815;28;20010;-77
2021/12/06 11:55:49;;;;;;;16.52;9.50;;;3.50;99.90;;;;;;5004321;28;20135;-77
2021/12/06 11:58:27;;;;;;;13.40;8.52;;;3.60;99.90;;;;;;5001707;28;20034;-76
2021/12/06 12:01:22;;;;;;;13.20;8.35;;;3.70;99.90;;;;;;5013552;28;20026;-76
2021/12/06 12:03:58;;;;;;;14.52;7.85;;;3.70;99.90;;;;;;5007751;28;20038;-78
2021/12/06 12:06:31;;;;;;;13.55;8.48;;;3.70;99.90;;;;;;5005785;28;20029;-79
2021/12/06 12:09:07;;;;;;;18.58;10.73;;;3.70;99.20;;;;;;5003814;28;20356;-79
2021/12/06 12:11:51;;;;;;;14.23;9.13;;;3.60;99.40;;;;;;4978306;28;20031;-78
2021/12/06 12:14:27;;;;;;;19.15;11.57;;;3.60;99.90;;;;;;4978347;28;20018;-76
2021/12/06 12:16:54;;;;;;;16.35;9.07;;;3.60;99.90;;;;;;4978482;28;20038;-78
2021/12/06 12:19:20;;;;;;;17.75;9.73;;;3.70;99.90;;;;;;4994795;28;20039;-79
2021/12/06 12:21:46;;;;;;;19.13;11.43;;;3.60;99.90;;;;;;4982911;28;20494;-79
2021/12/06 12:24:12;;;;;;;16.90;10.27;;;3.60;99.90;;;;;;4987982;28;20034;-78
2021/12/06 12:26:50;;;;;;;18.65;10.85;;;3.60;99.90;;;;;;5002384;28;20038;-78
2021/12/06 12:29:24;;;;;;;20.13;11.88;;;3.70;99.90;;;;;;5001201;28;20421;-79
2021/12/06 12:31:51;;;;;;;15.25;9.77;;;3.70;99.90;;;;;;5016342;28;20106;-77
2021/12/06 12:34:17;;;;;;;14.90;9.63;;;3.80;99.90;;;;;;5003957;28;20014;-78
2021/12/06 12:36:43;;;;;;;14.18;8.85;;;3.80;99.90;;;;;;4996018;28;20446;-76
2021/12/06 12:39:16;;;;;;;11.00;8.18;;;3.80;99.90;;;;;;5011696;28;20039;-77
2021/12/06 12:41:50;;;;;;;17.85;11.52;;;3.80;99.90;;;;;;4999961;28;20046;-80
2021/12/06 12:44:16;;;;;;;19.33;11.32;;;3.90;99.20;;;;;;4998929;28;20037;-77
2021/12/06 12:46:44;;;;;;;16.98;10.85;;;3.70;99.20;;;;;;4998102;28;20030;-76
2021/12/06 12:49:17;;;;;;;19.02;10.80;;;3.70;99.70;;;;;;5015254;28;20208;-77
2021/12/06 12:51:57;;;;;;;14.00;9.80;;;3.60;99.30;;;;;;4983450;28;20022;-78
2021/12/06 12:54:28;;;;;;;18.83;9.90;;;3.50;99.80;;;;;;5007781;28;20093;-77
2021/12/06 12:56:57;;;;;;;12.50;9.07;;;3.50;99.90;;;;;;4998240;28;20023;-77
2021/12/06 12:59:26;;;;;;;16.67;9.68;;;3.50;99.90;;;;;;4988953;28;20048;-78
2021/12/06 13:02:17;;;;;;;19.65;11.43;;;3.60;99.60;;;;;;5006829;28;20053;-77
2021/12/06 13:04:58;;;;;;;16.77;10.10;;;3.60;99.00;;;;;;4981116;28;20030;-77
2021/12/06 13:07:29;;;;;;;14.10;8.70;;;3.60;99.20;;;;;;5007363;28;20038;-77
2021/12/06 13:09:58;;;;;;;18.23;10.75;;;3.60;99.30;;;;;;5002954;28;20034;-78